Time;durP1;ratioP1;P1;durP2;ratioP2;P2;SDS_P1;SDS_P2;PMS_P1;PMS_P2;Temp;Humidity;BMP_temperature;BMP_pressure;BME280_temperature;BME280_humidity;BME280_pressure;Samples;Min_cycle;Max_cycle;Signal;HPM_P1;HPM_P2
2023/01/07 00:01:03;;;;;;;2.00;1.80;;;10.80;99.90;;;;;;5092640;28;20822;-54
2023/01/07 00:03:30;;;;;;;2.80;2.60;;;10.80;99.90;;;;;;5091059;28;20485;-55
2023/01/07 00:06:01;;;;;;;1.90;1.80;;;10.80;99.90;;;;;;5092915;28;20447;-55
2023/01/07 00:08:30;;;;;;;2.67;2.40;;;10.70;99.90;;;;;;5093110;28;20451;-54
2023/01/07 00:11:00;;;;;;;2.30;2.10;;;10.70;99.90;;;;;;5090816;28;20467;-54
2023/01/07 00:13:27;;;;;;;2.00;1.90;;;10.70;99.90;;;;;;5092673;28;20500;-56
2023/01/07 00:15:58;;;;;;;2.30;2.10;;;10.70;99.90;;;;;;5092671;28;20450;-54
2023/01/07 00:18:26;;;;;;;2.53;2.33;;;10.70;99.90;;;;;;5091225;28;20450;-54
2023/01/07 00:20:56;;;;;;;2.97;2.00;;;10.70;99.90;;;;;;5091721;28;20812;-56
2023/01/07 00:23:24;;;;;;;2.50;2.20;;;10.70;99.90;;;;;;5093013;28;20509;-56
2023/01/07 00:25:52;;;;;;;2.00;1.90;;;10.70;99.90;;;;;;5090717;28;20451;-56
2023/01/07 00:28:19;;;;;;;2.80;2.40;;;10.70;99.90;;;;;;5092785;28;20450;-55
2023/01/07 00:30:46;;;;;;;2.80;2.60;;;10.80;99.90;;;;;;5092903;28;20473;-55
2023/01/07 00:33:14;;;;;;;2.67;2.47;;;10.70;99.90;;;;;;5091006;28;20447;-54
2023/01/07 00:35:43;;;;;;;2.70;2.50;;;10.70;99.90;;;;;;5092573;28;20535;-54
2023/01/07 00:38:11;;;;;;;2.40;2.20;;;10.70;99.90;;;;;;5092813;28;20455;-54
2023/01/07 00:40:39;;;;;;;2.73;2.13;;;10.70;99.90;;;;;;5090332;28;20471;-55
2023/01/07 00:43:06;;;;;;;2.80;2.60;;;10.70;99.90;;;;;;5092684;28;20837;-54
2023/01/07 00:45:35;;;;;;;2.33;2.13;;;10.70;99.90;;;;;;5092414;28;20483;-54
2023/01/07 00:48:03;;;;;;;2.30;2.10;;;10.70;99.90;;;;;;5090643;28;20451;-55
2023/01/07 00:50:34;;;;;;;2.50;2.30;;;10.70;99.90;;;;;;5092560;28;20451;-54
2023/01/07 00:53:03;;;;;;;2.80;2.47;;;10.70;99.90;;;;;;5092717;28;20439;-55
2023/01/07 00:55:32;;;;;;;3.47;2.43;;;10.70;99.90;;;;;;5089839;28;20455;-55
2023/01/07 00:57:59;;;;;;;2.40;2.20;;;10.60;99.90;;;;;;5092855;28;20500;-56
2023/01/07 01:00:27;;;;;;;2.60;2.40;;;10.70;99.90;;;;;;5092436;28;20447;-54
2023/01/07 01:02:54;;;;;;;3.03;2.30;;;10.70;99.90;;;;;;5090197;28;20487;-55
2023/01/07 01:05:22;;;;;;;2.23;2.03;;;10.70;99.90;;;;;;5092389;28;20530;-56
2023/01/07 01:07:49;;;;;;;2.43;2.23;;;10.60;99.90;;;;;;5092566;28;20462;-55
2023/01/07 01:10:20;;;;;;;2.63;2.43;;;10.50;99.90;;;;;;5094309;28;20554;-55
2023/01/07 01:12:48;;;;;;;2.87;2.53;;;10.50;99.90;;;;;;5096136;28;20886;-54
2023/01/07 01:15:17;;;;;;;3.33;2.33;;;10.60;99.90;;;;;;5096188;28;20807;-55
2023/01/07 01:17:44;;;;;;;2.63;2.43;;;10.60;99.90;;;;;;5094069;28;21103;-55
2023/01/07 01:20:13;;;;;;;3.23;2.83;;;10.60;99.90;;;;;;5096146;28;20905;-55
2023/01/07 01:22:41;;;;;;;2.70;2.50;;;10.60;99.90;;;;;;5095897;28;20487;-54
2023/01/07 01:25:09;;;;;;;2.67;2.43;;;10.70;99.90;;;;;;5093767;28;20440;-55
2023/01/07 01:27:38;;;;;;;3.40;2.10;;;10.60;99.90;;;;;;5096156;28;20500;-55
2023/01/07 01:30:07;;;;;;;2.97;2.67;;;10.50;99.90;;;;;;5095407;28;20832;-56
2023/01/07 01:32:34;;;;;;;2.77;2.50;;;10.50;99.90;;;;;;5076023;28;20448;-56
2023/01/07 01:35:01;;;;;;;3.07;2.50;;;10.50;99.90;;;;;;5095807;28;20885;-56
2023/01/07 01:37:29;;;;;;;2.70;2.50;;;10.50;99.90;;;;;;5095457;28;20459;-54
2023/01/07 01:39:56;;;;;;;2.33;2.23;;;10.50;99.90;;;;;;5093719;28;20456;-54
2023/01/07 01:42:25;;;;;;;2.77;2.23;;;10.60;99.90;;;;;;5095780;28;20855;-54
2023/01/07 01:44:56;;;;;;;3.60;2.83;;;10.60;99.90;;;;;;5095094;28;20459;-55
2023/01/07 01:47:32;;;;;;;2.33;2.13;;;10.60;99.90;;;;;;5093954;28;20728;-55
2023/01/07 01:50:04;;;;;;;2.57;2.37;;;10.60;99.90;;;;;;5095225;28;20474;-55
2023/01/07 01:52:36;;;;;;;2.50;2.30;;;10.60;99.90;;;;;;5095447;28;20424;-55
2023/01/07 01:55:07;;;;;;;3.10;2.60;;;10.50;99.90;;;;;;5093267;28;20523;-54
2023/01/07 01:57:36;;;;;;;2.90;2.70;;;10.50;99.90;;;;;;5095161;28;20436;-55
2023/01/07 02:00:07;;;;;;;3.03;2.53;;;10.50;99.90;;;;;;5095058;28;20463;-54
2023/01/07 02:02:40;;;;;;;2.83;2.50;;;10.50;99.90;;;;;;5093575;28;20431;-54
2023/01/07 02:05:07;;;;;;;2.73;2.50;;;10.50;99.90;;;;;;5095208;28;20428;-54
2023/01/07 02:07:34;;;;;;;2.50;2.30;;;10.50;99.90;;;;;;5094955;28;20466;-54
2023/01/07 02:10:11;;;;;;;2.40;2.20;;;10.50;99.90;;;;;;5093360;28;20799;-55
2023/01/07 02:12:53;;;;;;;2.43;2.23;;;10.50;99.90;;;;;;5094961;28;20736;-56
2023/01/07 02:15:31;;;;;;;2.27;2.07;;;10.50;99.90;;;;;;5093201;28;20423;-54
2023/01/07 02:18:24;;;;;;;3.80;2.50;;;10.50;99.90;;;;;;5095199;28;20450;-55
2023/01/07 02:21:02;;;;;;;2.50;2.10;;;10.50;99.90;;;;;;5093198;28;20471;-54
2023/01/07 02:24:10;;;;;;;2.67;2.47;;;10.50;99.90;;;;;;5092897;28;20984;-55
2023/01/07 02:27:24;;;;;;;2.07;1.87;;;10.50;99.90;;;;;;5094577;28;20444;-54
2023/01/07 02:30:25;;;;;;;2.60;2.40;;;10.50;99.90;;;;;;5094950;28;20568;-55
2023/01/07 02:33:16;;;;;;;2.10;2.00;;;10.50;99.90;;;;;;5094725;28;20434;-55
2023/01/07 02:36:12;;;;;;;2.10;2.00;;;10.50;99.90;;;;;;5082466;28;20451;-56
2023/01/07 02:38:49;;;;;;;2.10;2.00;;;10.60;99.90;;;;;;5092603;28;20449;-56
2023/01/07 02:41:27;;;;;;;2.93;2.50;;;10.60;99.90;;;;;;5094110;28;20467;-54
2023/01/07 02:44:02;;;;;;;1.93;1.67;;;10.60;99.90;;;;;;5094676;28;20463;-54
2023/01/07 02:46:37;;;;;;;2.73;2.53;;;10.60;99.90;;;;;;5092387;28;20486;-55
2023/01/07 02:49:08;;;;;;;1.90;1.70;;;10.70;99.90;;;;;;5094089;28;20469;-55
2023/01/07 02:51:37;;;;;;;1.87;1.67;;;10.70;99.90;;;;;;5094294;28;20448;-55
2023/01/07 02:54:09;;;;;;;1.83;1.73;;;10.70;99.90;;;;;;5092418;28;20467;-54
2023/01/07 02:56:50;;;;;;;2.13;1.70;;;10.60;99.90;;;;;;5093952;28;20431;-54
2023/01/07 02:59:44;;;;;;;2.20;1.87;;;10.60;99.90;;;;;;5094291;28;20416;-55
2023/01/07 03:02:27;;;;;;;1.50;1.40;;;10.60;99.90;;;;;;5094248;28;20424;-55
2023/01/07 03:05:16;;;;;;;2.03;1.83;;;10.60;99.90;;;;;;5094296;28;20476;-54
2023/01/07 03:08:02;;;;;;;2.97;1.77;;;10.60;99.90;;;;;;5092104;28;20455;-56
2023/01/07 03:10:37;;;;;;;1.77;1.67;;;10.60;99.90;;;;;;5093433;28;20998;-56
2023/01/07 03:13:08;;;;;;;1.60;1.50;;;10.60;99.90;;;;;;5094150;28;20431;-56
2023/01/07 03:15:39;;;;;;;2.03;1.90;;;10.60;99.90;;;;;;5092476;28;20448;-54
2023/01/07 03:18:11;;;;;;;1.93;1.80;;;10.60;99.90;;;;;;5093826;28;20442;-54
2023/01/07 03:20:43;;;;;;;1.93;1.60;;;10.60;99.90;;;;;;5094091;28;20468;-55
2023/01/07 03:23:13;;;;;;;4.00;1.67;;;10.60;99.90;;;;;;5091570;28;20515;-56
2023/01/07 03:25:44;;;;;;;1.50;1.40;;;10.60;99.90;;;;;;5094154;28;20462;-54
2023/01/07 03:28:13;;;;;;;1.57;1.47;;;10.60;99.90;;;;;;5093728;28;20756;-54
2023/01/07 03:30:42;;;;;;;2.20;2.00;;;10.60;99.90;;;;;;5091550;28;20468;-54
2023/01/07 03:33:14;;;;;;;1.87;1.70;;;10.60;99.90;;;;;;5093088;28;20431;-55
2023/01/07 03:35:47;;;;;;;1.67;1.57;;;10.60;99.90;;;;;;5093812;28;20435;-55
2023/01/07 03:38:16;;;;;;;2.57;1.90;;;10.60;99.90;;;;;;5091467;28;20462;-56
2023/01/07 03:40:44;;;;;;;2.00;1.80;;;10.60;99.90;;;;;;5093617;28;20558;-54
2023/01/07 03:43:12;;;;;;;1.57;1.47;;;10.60;99.90;;;;;;5093532;28;20452;-54
2023/01/07 03:45:39;;;;;;;1.90;1.70;;;10.60;99.90;;;;;;5090965;28;20521;-54
2023/01/07 03:48:07;;;;;;;2.20;2.00;;;10.60;99.90;;;;;;5093565;28;20849;-54
2023/01/07 03:50:34;;;;;;;1.70;1.60;;;10.50;99.90;;;;;;5093161;28;20897;-55
2023/01/07 03:53:03;;;;;;;2.00;1.80;;;10.50;99.90;;;;;;5090701;28;20444;-55
2023/01/07 03:55:31;;;;;;;1.73;1.63;;;10.50;99.90;;;;;;5093189;28;20455;-55
2023/01/07 03:57:58;;;;;;;1.90;1.80;;;10.50;99.90;;;;;;5093401;28;20447;-56
2023/01/07 04:00:26;;;;;;;1.70;1.60;;;10.50;99.90;;;;;;5090770;28;20463;-55
2023/01/07 04:02:53;;;;;;;3.00;1.60;;;10.50;99.90;;;;;;5092943;28;20447;-54
2023/01/07 04:05:20;;;;;;;2.60;1.70;;;10.50;99.90;;;;;;5092901;28;20475;-56
2023/01/07 04:07:47;;;;;;;2.20;2.00;;;10.40;99.90;;;;;;5090787;28;20459;-56
2023/01/07 04:10:15;;;;;;;1.90;1.70;;;10.50;99.90;;;;;;5093193;28;20555;-56
2023/01/07 04:12:42;;;;;;;2.40;1.77;;;10.60;99.90;;;;;;5092856;28;20449;-55
2023/01/07 04:15:10;;;;;;;2.00;1.80;;;10.50;99.90;;;;;;5091089;28;20791;-55
2023/01/07 04:17:37;;;;;;;2.07;1.97;;;10.50;99.90;;;;;;5093197;28;20557;-55
2023/01/07 04:20:06;;;;;;;2.13;1.83;;;10.40;99.90;;;;;;5092561;28;20467;-55
2023/01/07 04:22:33;;;;;;;2.57;2.00;;;10.40;99.90;;;;;;5090971;28;20452;-56
2023/01/07 04:25:00;;;;;;;2.13;1.80;;;10.40;99.90;;;;;;5092585;28;20486;-56
2023/01/07 04:27:29;;;;;;;1.90;1.80;;;10.40;99.90;;;;;;5092395;28;20451;-56
2023/01/07 04:29:56;;;;;;;1.90;1.80;;;10.50;99.90;;;;;;5090583;28;20835;-56
2023/01/07 04:32:23;;;;;;;1.90;1.80;;;10.50;99.90;;;;;;5092578;28;20451;-56
2023/01/07 04:34:51;;;;;;;2.53;2.03;;;10.50;99.90;;;;;;5092601;28;20455;-55
2023/01/07 04:37:18;;;;;;;2.30;2.10;;;10.50;99.90;;;;;;5090954;28;20792;-55
2023/01/07 04:39:45;;;;;;;2.47;2.10;;;10.40;99.90;;;;;;5092543;28;20502;-55
2023/01/07 04:42:12;;;;;;;2.00;1.80;;;10.40;99.90;;;;;;5092523;28;20451;-56
2023/01/07 04:44:41;;;;;;;2.23;2.03;;;10.30;99.90;;;;;;5093175;28;20573;-55
2023/01/07 04:47:08;;;;;;;2.30;2.10;;;10.30;99.90;;;;;;5096730;28;20830;-55
2023/01/07 04:49:35;;;;;;;2.30;2.03;;;10.40;99.90;;;;;;5095502;28;20423;-55
2023/01/07 04:52:03;;;;;;;2.50;2.30;;;10.30;99.90;;;;;;5094521;28;20993;-56
2023/01/07 04:54:30;;;;;;;1.97;1.87;;;10.30;99.90;;;;;;5096123;28;20439;-55
2023/01/07 04:56:57;;;;;;;3.97;2.00;;;10.30;99.90;;;;;;5096215;28;20948;-55
2023/01/07 04:59:24;;;;;;;2.93;2.67;;;10.30;99.90;;;;;;5094781;28;20810;-55
2023/01/07 05:01:53;;;;;;;2.40;2.20;;;10.30;99.90;;;;;;5096697;28;20447;-56
2023/01/07 05:04:20;;;;;;;2.30;2.10;;;10.40;99.90;;;;;;5096080;28;20969;-55
2023/01/07 05:06:47;;;;;;;2.50;2.30;;;10.30;99.90;;;;;;5094726;28;20458;-55
2023/01/07 05:09:14;;;;;;;2.10;2.00;;;10.30;99.90;;;;;;5096601;28;20933;-55
2023/01/07 05:11:41;;;;;;;1.93;1.83;;;10.30;99.90;;;;;;5096332;28;20817;-56
2023/01/07 05:14:10;;;;;;;3.53;2.03;;;10.30;99.90;;;;;;5094164;28;20526;-56
2023/01/07 05:16:37;;;;;;;2.13;1.87;;;10.30;99.90;;;;;;5096125;28;20448;-56
2023/01/07 05:19:06;;;;;;;1.93;1.83;;;10.30;99.90;;;;;;5096122;28;20454;-55
2023/01/07 05:21:33;;;;;;;2.10;2.00;;;10.30;99.90;;;;;;5093603;28;20503;-55
2023/01/07 05:24:00;;;;;;;2.40;2.17;;;10.30;99.90;;;;;;5095978;28;20485;-56
2023/01/07 05:26:27;;;;;;;4.40;4.10;;;10.30;99.90;;;;;;5095932;28;20447;-55
2023/01/07 05:28:55;;;;;;;2.60;2.40;;;10.30;99.90;;;;;;5094317;28;20543;-55
2023/01/07 05:31:22;;;;;;;2.03;1.93;;;10.30;99.90;;;;;;5095365;28;20837;-55
2023/01/07 05:33:49;;;;;;;3.20;1.97;;;10.20;99.90;;;;;;5096045;28;20453;-55
2023/01/07 05:36:17;;;;;;;2.63;2.30;;;10.30;99.90;;;;;;5094019;28;20456;-55
2023/01/07 05:38:44;;;;;;;2.67;2.37;;;10.30;99.90;;;;;;5095693;28;20944;-55
2023/01/07 05:41:12;;;;;;;6.10;2.87;;;10.20;99.90;;;;;;5095534;28;20973;-55
2023/01/07 05:43:39;;;;;;;2.70;2.33;;;10.20;99.90;;;;;;5093909;28;20444;-55
2023/01/07 05:46:06;;;;;;;2.70;2.50;;;10.20;99.90;;;;;;5095172;28;20474;-55
2023/01/07 05:48:33;;;;;;;2.50;2.30;;;10.20;99.90;;;;;;5095595;28;20542;-55
2023/01/07 05:51:00;;;;;;;2.30;2.10;;;10.10;99.90;;;;;;5093344;28;20463;-56
2023/01/07 05:53:28;;;;;;;3.00;2.70;;;10.10;99.90;;;;;;5095065;28;20459;-56
2023/01/07 05:55:56;;;;;;;1.93;1.83;;;10.10;99.90;;;;;;5094908;28;20440;-56
2023/01/07 05:58:23;;;;;;;2.53;2.33;;;10.10;99.90;;;;;;5093604;28;20541;-56
2023/01/07 06:00:50;;;;;;;2.30;2.10;;;10.10;99.90;;;;;;5095316;28;20471;-55
2023/01/07 06:03:18;;;;;;;2.53;2.33;;;10.10;99.90;;;;;;5095610;28;20454;-55
2023/01/07 06:05:45;;;;;;;11.83;3.47;;;10.10;99.90;;;;;;5093164;28;20512;-55
2023/01/07 06:08:12;;;;;;;2.07;1.93;;;10.10;99.90;;;;;;5095284;28;20463;-56
2023/01/07 06:10:41;;;;;;;2.23;2.07;;;10.10;99.90;;;;;;5095001;28;20459;-56
2023/01/07 06:13:08;;;;;;;2.17;2.00;;;10.10;99.90;;;;;;5092950;28;20448;-56
2023/01/07 06:15:35;;;;;;;2.57;2.37;;;10.10;99.90;;;;;;5095277;28;20530;-56
2023/01/07 06:18:02;;;;;;;2.00;1.90;;;10.10;99.90;;;;;;5095305;28;20446;-55
2023/01/07 06:20:33;;;;;;;2.40;2.20;;;10.10;99.90;;;;;;5093101;28;20470;-55
2023/01/07 06:23:01;;;;;;;2.10;1.97;;;10.00;99.90;;;;;;5094847;28;20431;-55
2023/01/07 06:25:29;;;;;;;2.50;2.30;;;10.00;99.90;;;;;;5094408;28;20483;-55
2023/01/07 06:27:58;;;;;;;3.43;2.60;;;10.00;99.90;;;;;;5092896;28;20443;-56
2023/01/07 06:30:25;;;;;;;2.50;2.30;;;10.00;99.90;;;;;;5094712;28;20502;-55
2023/01/07 06:32:53;;;;;;;2.03;1.93;;;9.90;99.90;;;;;;5094763;28;20447;-56
2023/01/07 06:35:20;;;;;;;2.67;2.47;;;9.90;99.90;;;;;;5092829;28;20443;-56
2023/01/07 06:37:47;;;;;;;2.40;2.20;;;10.00;99.90;;;;;;5094646;28;20887;-55
2023/01/07 06:40:15;;;;;;;2.33;2.13;;;9.90;99.90;;;;;;5094558;28;20467;-56
2023/01/07 06:42:42;;;;;;;2.30;2.10;;;10.00;99.90;;;;;;5092685;28;20457;-56
2023/01/07 06:45:12;;;;;;;4.67;4.27;;;9.90;99.90;;;;;;5094478;28;20491;-55
2023/01/07 06:47:39;;;;;;;2.67;2.47;;;9.90;99.90;;;;;;5094131;28;20495;-56
2023/01/07 06:50:07;;;;;;;2.87;2.60;;;9.90;99.90;;;;;;5092337;28;20965;-56
2023/01/07 06:52:35;;;;;;;2.80;2.30;;;9.90;99.90;;;;;;5094440;28;20527;-55
2023/01/07 06:55:02;;;;;;;2.57;2.37;;;9.90;99.90;;;;;;5094029;28;20444;-55
2023/01/07 06:57:30;;;;;;;2.37;2.17;;;9.90;99.90;;;;;;5092175;28;20538;-55
2023/01/07 06:59:57;;;;;;;2.10;1.90;;;9.80;99.90;;;;;;5094417;28;20510;-56
2023/01/07 07:02:28;;;;;;;2.23;2.03;;;9.80;99.90;;;;;;5093907;28;20432;-56
2023/01/07 07:04:55;;;;;;;2.63;2.43;;;9.80;99.90;;;;;;5092010;28;20474;-56
2023/01/07 07:07:23;;;;;;;2.53;2.13;;;9.80;99.90;;;;;;5093320;28;20538;-56
2023/01/07 07:09:50;;;;;;;2.33;2.23;;;9.90;99.90;;;;;;5093636;28;20542;-55
2023/01/07 07:12:18;;;;;;;2.10;1.90;;;9.80;99.90;;;;;;5091934;28;20443;-55
2023/01/07 07:14:45;;;;;;;2.80;2.60;;;9.80;99.90;;;;;;5093590;28;20444;-55
2023/01/07 07:17:12;;;;;;;2.13;1.93;;;9.90;99.90;;;;;;5093619;28;20985;-56
2023/01/07 07:19:41;;;;;;;2.10;1.90;;;9.80;99.90;;;;;;5092006;28;20447;-56
2023/01/07 07:22:08;;;;;;;2.13;1.93;;;9.70;99.90;;;;;;5093889;28;20475;-56
2023/01/07 07:24:35;;;;;;;2.13;1.93;;;9.70;99.90;;;;;;5093519;28;20479;-55
2023/01/07 07:27:06;;;;;;;2.07;1.97;;;9.70;99.90;;;;;;5091962;28;20814;-56
2023/01/07 07:29:33;;;;;;;2.17;2.07;;;9.60;99.90;;;;;;5093530;28;20809;-56
2023/01/07 07:32:01;;;;;;;2.23;2.10;;;9.70;99.90;;;;;;5093547;28;20447;-56
2023/01/07 07:34:28;;;;;;;2.33;2.13;;;9.60;99.90;;;;;;5091544;28;20546;-56
2023/01/07 07:36:56;;;;;;;2.47;2.27;;;9.60;99.90;;;;;;5093498;28;20808;-56
2023/01/07 07:39:23;;;;;;;2.30;2.10;;;9.60;99.90;;;;;;5093218;28;20509;-56
2023/01/07 07:41:50;;;;;;;2.33;2.13;;;9.70;99.90;;;;;;5091745;28;20517;-56
2023/01/07 07:44:18;;;;;;;2.70;1.97;;;9.70;99.90;;;;;;5093017;28;20455;-55
2023/01/07 07:46:45;;;;;;;2.13;2.03;;;9.80;99.90;;;;;;5092039;28;20995;-55
2023/01/07 07:49:12;;;;;;;2.60;2.40;;;9.80;99.90;;;;;;5091167;28;20470;-55
2023/01/07 07:51:39;;;;;;;2.60;1.70;;;9.80;99.90;;;;;;5093118;28;20490;-55
2023/01/07 07:54:08;;;;;;;2.60;2.40;;;9.80;99.90;;;;;;5092892;28;20957;-56
2023/01/07 07:56:35;;;;;;;2.17;1.97;;;9.70;99.90;;;;;;5091289;28;20443;-56
2023/01/07 07:59:02;;;;;;;2.33;2.13;;;9.70;99.90;;;;;;5092755;28;20455;-55
2023/01/07 08:01:29;;;;;;;1.73;1.63;;;9.70;99.90;;;;;;5092939;28;20977;-56
2023/01/07 08:03:56;;;;;;;2.07;1.87;;;9.80;99.90;;;;;;5090896;28;21013;-56
2023/01/07 08:06:23;;;;;;;3.20;2.03;;;9.80;99.90;;;;;;5093049;28;20628;-55
2023/01/07 08:08:50;;;;;;;2.20;2.00;;;9.80;99.90;;;;;;5093241;28;20616;-55
2023/01/07 08:11:19;;;;;;;2.07;1.87;;;9.80;99.90;;;;;;5090637;28;20983;-56
2023/01/07 08:13:46;;;;;;;2.10;1.90;;;9.80;99.90;;;;;;5092706;28;20810;-55
2023/01/07 08:16:13;;;;;;;2.90;1.83;;;9.80;99.90;;;;;;5092802;28;20494;-56
2023/01/07 08:18:40;;;;;;;2.20;2.00;;;9.80;99.90;;;;;;5090804;28;20517;-56
2023/01/07 08:21:07;;;;;;;2.37;2.17;;;9.80;99.90;;;;;;5093142;28;20467;-55
2023/01/07 08:23:35;;;;;;;2.50;2.30;;;9.80;99.90;;;;;;5092721;28;20446;-56
2023/01/07 08:26:03;;;;;;;3.00;2.50;;;9.80;99.90;;;;;;5090652;28;20482;-56
2023/01/07 08:28:31;;;;;;;2.23;2.03;;;9.80;99.90;;;;;;5092937;28;20459;-56
2023/01/07 08:31:02;;;;;;;2.60;2.00;;;9.80;99.90;;;;;;5092955;28;20463;-56
2023/01/07 08:33:30;;;;;;;1.97;1.87;;;9.80;99.90;;;;;;5090658;28;20839;-55
2023/01/07 08:35:57;;;;;;;2.10;1.90;;;9.80;99.90;;;;;;5092998;28;20454;-56
2023/01/07 08:38:26;;;;;;;2.53;1.60;;;9.80;99.90;;;;;;5092700;28;20806;-56
2023/01/07 08:40:53;;;;;;;2.87;2.20;;;9.80;99.90;;;;;;5090341;28;20474;-56
2023/01/07 08:43:22;;;;;;;1.90;1.80;;;9.80;99.90;;;;;;5092471;28;20802;-55
2023/01/07 08:45:51;;;;;;;1.90;1.80;;;9.90;99.90;;;;;;5092243;28;20483;-56
2023/01/07 08:48:19;;;;;;;2.20;2.00;;;9.90;99.90;;;;;;5090687;28;20549;-56
2023/01/07 08:50:50;;;;;;;2.40;2.20;;;9.90;99.90;;;;;;5092194;28;20833;-56
2023/01/07 08:53:17;;;;;;;4.43;1.90;;;9.90;99.90;;;;;;5090825;28;20444;-55
2023/01/07 09:02:02;;;;;;;2.50;2.23;;;10.00;99.90;;;;;;5063864;28;20476;-56
2023/01/07 09:04:30;;;;;;;2.93;2.23;;;9.90;99.90;;;;;;5089646;28;20912;-56
2023/01/07 09:06:57;;;;;;;2.40;2.20;;;9.90;99.90;;;;;;5091582;28;20478;-54
2023/01/07 09:09:24;;;;;;;2.30;2.10;;;9.90;99.90;;;;;;5092210;28;20450;-56
2023/01/07 09:11:51;;;;;;;2.23;1.83;;;10.00;99.90;;;;;;5089970;28;20450;-56
2023/01/07 09:14:18;;;;;;;2.27;2.07;;;10.10;99.90;;;;;;5091849;28;20665;-56
2023/01/07 09:16:45;;;;;;;2.37;2.13;;;10.10;99.90;;;;;;5092408;28;20436;-55
2023/01/07 09:19:14;;;;;;;2.30;2.10;;;10.20;99.90;;;;;;5107909;28;20442;-56
2023/01/07 09:21:41;;;;;;;3.40;2.47;;;10.20;99.90;;;;;;5111486;28;20469;-55
2023/01/07 09:24:09;;;;;;;2.20;2.00;;;10.30;99.90;;;;;;5111477;28;20841;-56
2023/01/07 09:26:36;;;;;;;2.10;1.90;;;10.40;99.90;;;;;;5110016;28;20528;-56
2023/01/07 09:29:03;;;;;;;3.27;2.27;;;10.40;99.90;;;;;;5112559;28;20442;-53
2023/01/07 09:31:30;;;;;;;2.53;2.33;;;10.50;99.90;;;;;;5116327;28;20475;-55
2023/01/07 09:33:57;;;;;;;2.53;2.33;;;10.50;99.90;;;;;;5107317;28;20815;-55
2023/01/07 09:36:26;;;;;;;2.90;2.13;;;10.50;99.90;;;;;;5103841;28;20450;-55
2023/01/07 09:38:53;;;;;;;2.37;2.17;;;10.60;99.90;;;;;;5114478;28;20558;-56
2023/01/07 09:41:30;;;;;;;3.53;2.90;;;10.50;99.90;;;;;;5111508;28;20470;-56
2023/01/07 09:44:08;;;;;;;2.50;2.30;;;10.50;99.90;;;;;;5115611;28;20415;-55
2023/01/07 09:46:35;;;;;;;2.93;2.70;;;10.60;99.90;;;;;;5114472;28;20481;-56
2023/01/07 09:49:03;;;;;;;4.23;3.80;;;10.60;99.90;;;;;;5115462;28;20452;-56
2023/01/07 09:51:37;;;;;;;3.17;2.90;;;10.50;99.90;;;;;;5115146;28;20992;-56
2023/01/07 09:54:09;;;;;;;3.50;3.20;;;10.40;99.90;;;;;;5113219;28;20839;-57
2023/01/07 09:56:39;;;;;;;4.10;3.60;;;10.50;99.90;;;;;;5114847;28;20526;-56
2023/01/07 09:59:10;;;;;;;3.70;3.40;;;10.50;99.90;;;;;;5116005;28;20809;-56
2023/01/07 10:01:43;;;;;;;3.43;3.13;;;10.70;99.90;;;;;;5113462;28;20475;-56
2023/01/07 10:04:23;;;;;;;3.80;3.50;;;10.60;99.90;;;;;;5114813;28;20921;-56
2023/01/07 10:07:02;;;;;;;3.50;3.20;;;10.70;99.90;;;;;;5115025;28;20510;-55
2023/01/07 10:09:38;;;;;;;5.27;4.77;;;10.70;99.90;;;;;;5113612;28;20431;-56
2023/01/07 10:12:17;;;;;;;5.73;4.67;;;10.70;99.90;;;;;;5114916;28;20431;-56
2023/01/07 10:15:11;;;;;;;5.07;3.73;;;10.70;99.90;;;;;;5115199;28;20434;-55
2023/01/07 10:17:49;;;;;;;4.30;3.90;;;10.80;99.90;;;;;;5096097;28;20469;-55
2023/01/07 10:20:25;;;;;;;4.37;3.97;;;10.80;99.90;;;;;;5114777;28;20502;-55
2023/01/07 10:22:57;;;;;;;4.33;3.90;;;10.70;99.90;;;;;;5114528;28;20435;-55
2023/01/07 10:25:29;;;;;;;4.20;3.80;;;10.70;99.90;;;;;;5112871;28;20488;-55
2023/01/07 10:28:02;;;;;;;4.00;3.70;;;10.80;99.90;;;;;;5115105;28;20437;-56
2023/01/07 10:30:35;;;;;;;3.60;3.30;;;10.90;99.90;;;;;;5114790;28;20458;-55
2023/01/07 10:33:17;;;;;;;4.90;4.50;;;11.20;99.90;;;;;;5098597;28;20532;-55
2023/01/07 10:35:47;;;;;;;4.07;3.40;;;11.30;99.90;;;;;;5093884;28;20499;-55
2023/01/07 10:38:20;;;;;;;3.53;3.13;;;11.30;99.90;;;;;;5092656;28;20539;-56
2023/01/07 10:40:53;;;;;;;3.30;3.00;;;11.40;99.90;;;;;;5099119;28;20824;-55
2023/01/07 10:43:40;;;;;;;5.47;4.03;;;11.60;99.90;;;;;;5114451;28;20839;-55
2023/01/07 10:46:24;;;;;;;4.30;3.90;;;;;;;;;;5112344;28;20863;-55
2023/01/07 10:49:23;;;;;;;4.60;3.40;;;12.60;99.90;;;;;;5114991;28;20431;-55
2023/01/07 10:52:05;;;;;;;3.70;3.40;;;13.50;99.90;;;;;;5105722;28;20457;-55
2023/01/07 10:55:04;;;;;;;3.20;2.90;;;14.30;99.90;;;;;;5112629;28;20522;-55
2023/01/07 10:57:32;;;;;;;3.80;2.93;;;14.10;99.90;;;;;;5113948;28;20896;-55
2023/01/07 11:00:02;;;;;;;3.73;3.43;;;14.20;99.90;;;;;;5113032;28;20473;-55
2023/01/07 11:02:29;;;;;;;3.43;3.13;;;15.10;99.90;;;;;;5111960;28;20447;-55
2023/01/07 11:04:58;;;;;;;3.63;3.33;;;15.30;99.90;;;;;;5114429;28;20541;-55
2023/01/07 11:07:29;;;;;;;4.63;4.23;;;;;;;;;;5113839;28;20489;-55
2023/01/07 11:10:03;;;;;;;3.40;3.10;;;16.10;99.90;;;;;;5112216;28;20458;-55
2023/01/07 11:12:37;;;;;;;4.40;4.00;;;16.80;99.90;;;;;;5113707;28;20530;-56
2023/01/07 11:15:09;;;;;;;5.00;4.00;;;16.80;99.90;;;;;;5113628;28;20479;-55
2023/01/07 11:17:40;;;;;;;5.00;4.50;;;16.90;99.90;;;;;;5112412;28;20427;-55
2023/01/07 11:20:08;;;;;;;3.90;3.60;;;17.50;99.90;;;;;;5114193;28;20462;-56
2023/01/07 11:22:37;;;;;;;4.70;4.20;;;18.00;99.10;;;;;;5113324;28;20792;-56
2023/01/07 11:25:26;;;;;;;4.40;4.00;;;17.40;99.10;;;;;;5112238;28;20545;-56
2023/01/07 11:27:55;;;;;;;3.93;3.53;;;17.50;99.00;;;;;;5113653;28;20450;-55
2023/01/07 11:30:26;;;;;;;4.03;3.73;;;16.90;99.20;;;;;;5111667;28;20498;-54
2023/01/07 11:32:58;;;;;;;4.10;3.80;;;16.80;99.40;;;;;;5100450;28;20446;-58
2023/01/07 11:35:27;;;;;;;4.23;3.90;;;17.20;99.10;;;;;;5093100;28;20442;-59
2023/01/07 11:37:56;;;;;;;3.80;3.43;;;17.10;99.00;;;;;;5091557;28;21078;-56
2023/01/07 11:40:27;;;;;;;4.80;4.40;;;17.30;99.00;;;;;;5094492;28;20467;-55
2023/01/07 11:42:56;;;;;;;4.37;3.97;;;16.70;99.20;;;;;;5113327;28;20510;-57
2023/01/07 11:45:25;;;;;;;4.67;4.27;;;16.80;99.50;;;;;;5111747;28;20502;-54
2023/01/07 11:47:58;;;;;;;5.00;3.97;;;16.30;99.40;;;;;;5112912;28;20489;-54
2023/01/07 11:50:29;;;;;;;4.70;4.10;;;15.60;99.90;;;;;;5112582;28;20467;-53
2023/01/07 11:53:00;;;;;;;4.70;4.23;;;15.20;99.90;;;;;;5110601;28;20450;-53
2023/01/07 11:55:29;;;;;;;4.43;4.03;;;14.40;99.90;;;;;;5113602;28;20423;-53
2023/01/07 11:57:58;;;;;;;4.37;3.97;;;14.60;99.90;;;;;;5113185;28;20448;-53
2023/01/07 12:00:27;;;;;;;5.13;4.23;;;14.60;99.90;;;;;;5111418;28;20823;-53
2023/01/07 12:03:10;;;;;;;6.93;5.03;;;14.40;99.90;;;;;;5112876;28;20804;-53
2023/01/07 12:05:38;;;;;;;4.67;4.27;;;14.00;99.90;;;;;;5113081;28;20415;-54
2023/01/07 12:08:07;;;;;;;6.00;4.43;;;13.50;99.90;;;;;;5109918;28;20500;-54
2023/01/07 12:10:37;;;;;;;4.83;4.47;;;13.20;99.90;;;;;;5111691;28;20466;-55
2023/01/07 12:13:15;;;;;;;4.13;3.17;;;13.10;99.90;;;;;;5112496;28;20457;-54
2023/01/07 12:15:51;;;;;;;5.47;4.97;;;13.20;99.90;;;;;;5111019;28;20905;-54
2023/01/07 12:18:43;;;;;;;5.20;4.70;;;13.10;99.90;;;;;;5112773;28;20417;-54
2023/01/07 12:21:25;;;;;;;4.50;4.17;;;;;;;;;;5112959;28;20741;-54
2023/01/07 12:24:04;;;;;;;4.47;4.07;;;13.20;99.90;;;;;;5110772;28;20876;-54
2023/01/07 12:26:41;;;;;;;4.13;3.73;;;13.10;99.90;;;;;;5112734;28;20473;-54
2023/01/07 12:29:20;;;;;;;5.00;4.20;;;13.00;99.90;;;;;;5112911;28;20423;-54
2023/01/07 12:32:13;;;;;;;4.53;4.10;;;13.00;99.90;;;;;;5108328;28;20531;-54
2023/01/07 12:34:48;;;;;;;4.97;4.50;;;12.90;99.90;;;;;;5092367;28;20427;-54
2023/01/07 12:37:30;;;;;;;5.57;5.07;;;12.90;99.90;;;;;;5090132;28;20451;-54
2023/01/07 12:40:11;;;;;;;5.20;4.80;;;13.00;99.90;;;;;;5102454;28;20462;-55
2023/01/07 12:42:43;;;;;;;4.70;4.23;;;13.00;99.90;;;;;;5104547;28;20481;-55
2023/01/07 12:45:19;;;;;;;5.10;4.60;;;13.00;99.90;;;;;;5098371;28;20489;-55
2023/01/07 12:47:52;;;;;;;4.40;4.00;;;12.90;99.90;;;;;;5100559;28;20475;-54
2023/01/07 12:50:27;;;;;;;4.90;4.40;;;12.70;99.90;;;;;;5109477;28;20496;-54
2023/01/07 12:53:02;;;;;;;5.03;4.53;;;12.70;99.90;;;;;;5091595;28;20431;-54
2023/01/07 12:55:32;;;;;;;5.17;4.63;;;12.80;99.90;;;;;;5094631;28;20523;-54
2023/01/07 12:58:14;;;;;;;5.13;4.63;;;12.90;99.90;;;;;;5094689;28;20431;-55
2023/01/07 13:00:48;;;;;;;5.57;4.43;;;13.00;99.90;;;;;;5094030;28;20877;-54
2023/01/07 13:03:24;;;;;;;4.53;4.13;;;12.80;99.90;;;;;;5095118;28;20461;-54
2023/01/07 13:05:56;;;;;;;5.00;4.60;;;12.70;99.90;;;;;;5097104;28;20906;-54
2023/01/07 13:08:35;;;;;;;8.23;4.90;;;12.80;99.90;;;;;;5108984;28;20484;-54
2023/01/07 13:11:08;;;;;;;4.97;4.47;;;12.70;99.90;;;;;;5101789;28;20458;-55
2023/01/07 13:13:40;;;;;;;4.73;4.30;;;12.80;99.90;;;;;;5106488;28;20434;-54
2023/01/07 13:16:10;;;;;;;7.17;4.00;;;12.80;99.90;;;;;;5096999;28;20440;-54